Time;durP1;ratioP1;P1;durP2;ratioP2;P2;SDS_P1;SDS_P2;PMS_P1;PMS_P2;Temp;Humidity;BMP_temperature;BMP_pressure;BME280_temperature;BME280_humidity;BME280_pressure;Samples;Min_cycle;Max_cycle;Signal;HPM_P1;HPM_P2
2023/02/09 00:01:07;;;;;;;25.50;13.65;;;;;;;16.59;46.21;103198.56;6102533;23;20022;-85
2023/02/09 00:03:33;;;;;;;22.02;12.75;;;;;;;16.57;46.09;103195.03;6128663;23;20001;-85
2023/02/09 00:06:00;;;;;;;20.50;12.25;;;;;;;16.58;46.24;103200.28;6102817;23;20435;-85
2023/02/09 00:08:26;;;;;;;23.08;12.35;;;;;;;16.60;46.32;103192.53;6102518;23;20002;-85
2023/02/09 00:10:51;;;;;;;21.27;12.80;;;;;;;16.59;45.86;103193.38;6102643;23;20005;-85
2023/02/09 00:13:23;;;;;;;18.65;11.80;;;;;;;16.56;46.27;103194.16;6102738;23;20002;-84
2023/02/09 00:15:55;;;;;;;21.45;11.80;;;;;;;16.55;46.33;103196.69;6127874;23;20001;-85
2023/02/09 00:18:22;;;;;;;23.10;12.52;;;;;;;16.55;46.25;103197.59;6128337;23;20001;-84
2023/02/09 00:21:14;;;;;;;20.98;12.40;;;;;;;16.55;46.18;103191.50;6103608;23;20010;-85
2023/02/09 00:23:40;;;;;;;20.90;11.90;;;;;;;16.56;46.14;103188.06;6106087;23;20045;-85
2023/02/09 00:26:09;;;;;;;21.90;11.65;;;;;;;16.53;46.35;103181.06;6102435;23;20013;-85
2023/02/09 00:28:36;;;;;;;20.80;12.25;;;;;;;16.53;46.28;103181.06;6127484;23;20357;-85
2023/02/09 00:31:06;;;;;;;20.02;11.27;;;;;;;16.52;46.16;103189.69;6128557;23;20010;-85
2023/02/09 00:33:32;;;;;;;18.00;10.65;;;;;;;16.51;46.10;103187.06;6128180;23;20052;-84
2023/02/09 00:35:57;;;;;;;20.63;11.30;;;;;;;16.50;46.00;103188.75;6079430;23;20045;-84
2023/02/09 00:38:23;;;;;;;19.15;12.18;;;;;;;16.51;45.88;103185.34;6079025;23;20005;-84
2023/02/09 00:40:48;;;;;;;18.15;10.63;;;;;;;16.50;46.02;103172.28;6101859;23;20320;-84
2023/02/09 00:43:13;;;;;;;17.50;10.45;;;;;;;16.49;46.04;103176.59;6102312;23;20062;-84
2023/02/09 00:45:39;;;;;;;18.20;10.70;;;;;;;16.50;45.77;103177.47;6126127;23;20058;-84
2023/02/09 00:48:04;;;;;;;16.90;10.27;;;;;;;16.49;45.97;103178.31;6126032;23;20096;-85
2023/02/09 00:50:30;;;;;;;17.13;9.68;;;;;;;16.46;45.72;103171.28;6101744;23;20035;-84
2023/02/09 00:52:55;;;;;;;16.77;9.98;;;;;;;16.48;46.08;103177.41;6126006;23;20104;-84
2023/02/09 00:55:21;;;;;;;17.90;9.88;;;;;;;16.47;46.01;103185.19;6101549;23;20014;-84
2023/02/09 00:57:46;;;;;;;21.67;10.48;;;;;;;16.47;45.79;103178.28;6101608;23;20457;-85
2023/02/09 01:00:13;;;;;;;17.02;9.80;;;;;;;16.48;46.23;103180.03;6101349;23;20032;-85
2023/02/09 01:02:39;;;;;;;15.27;9.43;;;;;;;16.48;46.04;103173.94;6126073;23;20030;-84
2023/02/09 01:05:05;;;;;;;14.05;9.43;;;;;;;16.47;45.96;103173.06;6101915;23;20009;-83
2023/02/09 01:07:30;;;;;;;16.45;9.32;;;;;;;16.45;45.83;103170.41;6101710;23;20014;-85
2023/02/09 01:09:56;;;;;;;15.55;9.18;;;;;;;16.45;45.89;103175.59;6150455;23;20006;-85
2023/02/09 01:12:21;;;;;;;14.65;9.18;;;;;;;16.45;46.08;103162.63;6125977;23;20033;-85
2023/02/09 01:14:47;;;;;;;15.55;9.40;;;;;;;16.45;46.16;103152.22;6125927;23;20056;-85
2023/02/09 01:17:13;;;;;;;15.43;9.25;;;;;;;16.45;45.86;103146.16;6128170;23;20010;-85
2023/02/09 01:19:38;;;;;;;13.10;8.65;;;;;;;16.44;45.93;103150.47;6127639;23;20013;-86
2023/02/09 01:22:04;;;;;;;13.48;8.57;;;;;;;16.44;45.81;103155.66;6103220;23;20074;-84
2023/02/09 01:24:29;;;;;;;14.98;9.30;;;;;;;16.42;45.80;103157.34;6128934;23;20005;-83
2023/02/09 01:26:55;;;;;;;14.52;8.57;;;;;;;16.42;45.89;103149.53;6079262;23;20431;-81
2023/02/09 01:29:20;;;;;;;13.23;8.05;;;;;;;16.43;46.03;103153.88;6127675;23;20443;-86
2023/02/09 01:31:47;;;;;;;13.27;7.97;;;;;;;16.42;45.99;103143.47;6129655;23;20021;-85
2023/02/09 01:34:14;;;;;;;14.18;8.50;;;;;;;16.43;45.94;103153.88;6128979;23;20010;-84
2023/02/09 01:36:40;;;;;;;13.10;8.52;;;;;;;16.42;45.96;103146.06;6133321;23;20490;-84
2023/02/09 01:39:06;;;;;;;14.07;8.10;;;;;;;16.40;45.90;103151.19;6157378;23;20010;-84
2023/02/09 01:41:32;;;;;;;12.70;7.70;;;;;;;16.41;45.88;103146.88;6133610;23;20014;-86
2023/02/09 01:44:02;;;;;;;15.98;8.05;;;;;;;16.39;45.84;103152.03;6132234;23;20034;-80
2023/02/09 01:46:31;;;;;;;12.77;7.93;;;;;;;16.39;45.82;103152.03;6154882;23;20351;-83
2023/02/09 01:49:17;;;;;;;12.40;7.30;;;;;;;16.40;45.85;103155.53;6129543;23;20009;-84
2023/02/09 01:51:49;;;;;;;11.90;7.07;;;;;;;16.40;45.82;103152.94;6153026;23;20494;-86
2023/02/09 01:54:41;;;;;;;12.57;7.60;;;;;;;16.39;45.82;103149.41;6130041;23;20427;-85
2023/02/09 01:57:18;;;;;;;11.43;7.50;;;;;;;16.38;45.51;103147.66;6127200;23;20010;-85
2023/02/09 01:59:49;;;;;;;13.77;7.40;;;;;;;16.37;45.85;103142.41;6128008;23;20006;-85
2023/02/09 02:02:15;;;;;;;14.20;7.82;;;;;;;16.36;45.84;103143.25;6129144;23;19998;-85
2023/02/09 02:04:42;;;;;;;10.45;6.82;;;;;;;16.37;45.86;103139.81;6055399;23;20089;-85
2023/02/09 02:07:26;;;;;;;11.40;6.70;;;;;;;16.37;45.70;103134.63;6103405;23;20502;-84
2023/02/09 02:09:52;;;;;;;12.20;7.15;;;;;;;16.37;45.51;103127.69;6127650;23;20057;-85
2023/02/09 02:12:18;;;;;;;10.90;6.70;;;;;;;16.38;45.69;103123.41;6080540;23;20061;-86
2023/02/09 02:14:43;;;;;;;10.90;6.75;;;;;;;16.37;45.68;103119.91;6127945;23;20006;-86
2023/02/09 02:17:23;;;;;;;10.13;6.57;;;;;;;16.39;45.64;103126.03;6079217;23;20442;-86
2023/02/09 02:20:10;;;;;;;11.57;6.88;;;;;;;16.39;45.74;103114.75;6127602;23;20010;-86
2023/02/09 02:22:38;;;;;;;10.05;6.28;;;;;;;16.39;45.55;103107.84;6127895;23;20324;-86
2023/02/09 02:25:25;;;;;;;11.52;6.40;;;;;;;16.39;45.78;103109.56;6127840;23;20002;-85
2023/02/09 02:28:06;;;;;;;9.50;6.40;;;;;;;16.38;45.58;103103.50;6104339;23;20006;-85
2023/02/09 02:30:50;;;;;;;10.30;6.30;;;;;;;16.39;45.70;103106.97;6127793;23;20006;-86
2023/02/09 02:33:36;;;;;;;9.65;6.20;;;;;;;16.40;45.61;103098.34;6103020;23;20028;-86
2023/02/09 02:36:27;;;;;;;8.80;6.00;;;;;;;16.38;45.69;103087.03;6102659;23;20002;-86
2023/02/09 02:39:13;;;;;;;7.85;5.70;;;;;;;16.39;45.47;103092.25;6102699;23;20017;-84
2023/02/09 02:44:39;;;;;;;8.93;5.95;;;;;;;16.40;45.60;103078.44;6128664;23;20012;-85
2023/02/09 02:47:07;;;;;;;9.02;5.07;;;;;;;16.40;45.47;103077.56;6102560;23;20001;-86
2023/02/09 02:49:57;;;;;;;8.68;5.70;;;;;;;16.39;45.48;103084.44;6126140;23;20009;-85
2023/02/09 02:52:23;;;;;;;10.50;5.50;;;;;;;16.40;45.45;103075.84;6101357;23;20108;-85
2023/02/09 02:54:58;;;;;;;8.30;5.40;;;;;;;16.41;45.22;103069.78;6102417;23;20006;-84
2023/02/09 02:57:29;;;;;;;7.15;4.85;;;;;;;16.40;45.59;103074.97;6102194;23;20010;-84
2023/02/09 03:00:14;;;;;;;7.68;5.40;;;;;;;16.40;45.58;103080.16;6127346;23;20018;-84
2023/02/09 03:02:47;;;;;;;8.38;5.50;;;;;;;16.40;45.58;103077.56;6151873;23;20013;-84
2023/02/09 03:05:15;;;;;;;6.25;4.50;;;;;;;16.38;45.48;103059.31;6151482;23;20367;-86
2023/02/09 03:07:41;;;;;;;6.97;4.93;;;;;;;16.39;45.45;103063.66;6127380;23;20010;-85
2023/02/09 03:10:22;;;;;;;6.85;4.78;;;;;;;16.39;45.39;103055.88;6102813;23;20009;-82
2023/02/09 03:13:06;;;;;;;7.03;4.95;;;;;;;16.40;45.49;103054.19;6151423;23;20064;-84
2023/02/09 03:15:32;;;;;;;6.57;4.75;;;;;;;16.39;45.48;103057.59;6126908;23;20427;-85
2023/02/09 03:18:20;;;;;;;8.15;4.72;;;;;;;16.38;45.68;103050.66;6126513;23;20013;-87
2023/02/09 03:20:51;;;;;;;6.57;4.18;;;;;;;16.38;45.51;103056.72;6151373;23;20033;-85
2023/02/09 03:23:30;;;;;;;7.03;4.45;;;;;;;16.37;45.60;103051.47;6126805;23;20010;-86
2023/02/09 03:26:00;;;;;;;6.07;4.55;;;;;;;16.35;45.60;103053.13;6126624;23;20001;-85
2023/02/09 03:28:32;;;;;;;6.90;4.90;;;;;;;16.34;45.62;103048.78;6126631;23;20044;-84
2023/02/09 03:30:59;;;;;;;7.07;4.18;;;;;;;16.34;45.83;103046.19;6126734;23;20097;-85
2023/02/09 03:33:30;;;;;;;7.10;4.32;;;;;;;16.33;45.80;103039.22;6107046;23;20061;-81
2023/02/09 03:35:59;;;;;;;5.32;3.92;;;;;;;16.32;45.68;103032.25;6135019;23;20036;-81
2023/02/09 03:38:26;;;;;;;6.13;4.28;;;;;;;16.31;45.46;103026.19;6134710;23;20434;-81
2023/02/09 03:40:52;;;;;;;6.68;4.60;;;;;;;16.33;45.90;103034.00;6135969;23;20006;-81
2023/02/09 03:43:17;;;;;;;6.95;4.43;;;;;;;16.32;45.84;103034.88;6136644;23;20006;-81
2023/02/09 03:45:43;;;;;;;6.97;4.60;;;;;;;16.33;45.62;103034.00;6113054;23;20442;-81
2023/02/09 03:48:08;;;;;;;6.20;4.15;;;;;;;16.31;45.68;103031.38;6137305;23;20001;-81
2023/02/09 03:50:34;;;;;;;7.25;4.20;;;;;;;16.31;45.68;103028.78;6137315;23;20012;-81
2023/02/09 03:53:01;;;;;;;5.85;4.13;;;;;;;16.33;45.94;103015.81;6139813;23;20006;-81
2023/02/09 03:55:27;;;;;;;4.97;3.92;;;;;;;16.34;45.50;103009.81;6173337;23;20056;-82
2023/02/09 03:57:52;;;;;;;6.57;4.03;;;;;;;16.33;45.86;103008.03;6144203;23;20422;-81
2023/02/09 04:00:18;;;;;;;5.68;4.20;;;;;;;16.33;45.75;103015.81;6088657;23;20021;-81
2023/02/09 04:02:44;;;;;;;5.03;3.70;;;;;;;16.33;45.44;103013.22;6136777;23;20006;-82
2023/02/09 04:05:10;;;;;;;5.68;4.00;;;;;;;16.33;45.42;103003.75;6116613;23;20010;-82
2023/02/09 04:07:35;;;;;;;6.55;4.00;;;;;;;16.35;45.56;103017.66;6144989;23;20017;-80
2023/02/09 04:10:01;;;;;;;5.00;3.80;;;;;;;16.34;45.54;103007.22;6115224;23;20005;-81
2023/02/09 04:12:26;;;;;;;5.20;3.83;;;;;;;16.34;45.52;103022.81;6132420;23;20044;-81
2023/02/09 04:14:52;;;;;;;5.32;3.80;;;;;;;16.34;45.31;103010.69;6082907;23;20010;-81
2023/02/09 04:17:17;;;;;;;5.72;3.70;;;;;;;16.33;45.33;103005.44;6108785;23;20006;-81
2023/02/09 04:19:43;;;;;;;7.95;3.80;;;;;;;16.33;45.40;103015.81;6110422;23;20006;-82
2023/02/09 04:22:08;;;;;;;6.40;3.92;;;;;;;16.33;45.49;103028.81;6136479;23;20017;-82
2023/02/09 04:24:33;;;;;;;4.90;3.88;;;;;;;16.33;45.52;103034.91;6111723;23;20001;-82
2023/02/09 04:26:59;;;;;;;5.00;3.60;;;;;;;16.32;45.40;103037.47;6136678;23;20342;-81
2023/02/09 04:29:25;;;;;;;5.35;3.53;;;;;;;16.31;45.66;103036.59;6111911;23;20446;-81
2023/02/09 04:31:50;;;;;;;5.13;3.60;;;;;;;16.29;45.75;103042.53;6135409;23;20480;-81
2023/02/09 04:34:16;;;;;;;4.50;3.50;;;;;;;16.31;45.52;103039.19;6109957;23;20078;-81
2023/02/09 04:36:41;;;;;;;4.72;3.38;;;;;;;16.29;45.39;103047.75;6157220;23;20013;-80
2023/02/09 04:39:07;;;;;;;4.50;3.40;;;;;;;16.29;45.60;103039.94;6132098;23;20120;-80
2023/02/09 04:41:32;;;;;;;5.72;3.90;;;;;;;16.30;45.65;103049.53;6134847;23;20013;-81
2023/02/09 04:43:58;;;;;;;5.18;3.67;;;;;;;16.28;45.67;103043.41;6134417;23;20005;-81
2023/02/09 04:46:23;;;;;;;4.70;3.45;;;;;;;16.25;45.61;103057.19;6110464;23;20010;-81
2023/02/09 04:48:49;;;;;;;4.57;3.30;;;;;;;16.24;45.66;103058.91;6133855;23;20014;-80
2023/02/09 04:51:14;;;;;;;5.05;3.15;;;;;;;16.25;45.54;103052.84;6137446;23;20081;-82
2023/02/09 04:53:40;;;;;;;4.65;3.33;;;;;;;16.27;45.60;103052.03;6112008;23;20435;-81
2023/02/09 04:56:05;;;;;;;4.65;3.30;;;;;;;16.26;45.65;103051.13;6136145;23;20025;-81
2023/02/09 05:01:19;;;;;;;5.18;3.40;;;;;;;16.25;45.54;103071.03;6135841;23;20033;-81
2023/02/09 05:03:45;;;;;;;5.07;3.10;;;;;;;16.27;45.47;103070.22;6139490;23;20008;-81
2023/02/09 05:06:10;;;;;;;7.30;3.38;;;;;;;16.23;45.65;103061.44;6110513;23;20006;-81
2023/02/09 05:08:36;;;;;;;4.30;3.22;;;;;;;16.25;45.52;103060.66;6108794;23;20466;-80
2023/02/09 05:11:01;;;;;;;5.50;3.30;;;;;;;16.24;45.44;103061.50;6111295;23;20057;-81
2023/02/09 05:13:27;;;;;;;4.65;3.25;;;;;;;16.25;45.57;103065.84;6118742;23;20014;-81
2023/02/09 05:15:53;;;;;;;3.45;2.95;;;;;;;16.25;45.49;103062.38;6112246;23;20016;-81
2023/02/09 05:18:20;;;;;;;3.75;3.00;;;;;;;16.27;45.54;103063.31;6171661;23;20014;-81
2023/02/09 05:20:46;;;;;;;4.47;3.25;;;;;;;16.27;45.36;103062.44;6147698;23;20005;-80
2023/02/09 05:23:11;;;;;;;5.47;3.00;;;;;;;16.28;45.53;103064.19;6113103;23;20018;-81
2023/02/09 05:25:38;;;;;;;4.65;3.00;;;;;;;16.28;45.21;103069.38;6109274;23;20363;-80
2023/02/09 05:28:03;;;;;;;4.18;3.10;;;;;;;16.27;45.24;103068.50;6132605;23;20435;-81
2023/02/09 05:38:57;;;;;;;3.88;2.70;;;;;;;16.26;45.79;103079.72;6128974;23;20804;-82
2023/02/09 06:20:11;;;;;;;3.83;2.75;;;;;;;16.31;45.54;103082.44;6125779;23;20010;-86
2023/02/09 06:38:33;;;;;;;7.43;3.47;;;;;;;16.38;45.81;103076.63;6148382;23;20396;-86
2023/02/09 06:43:34;;;;;;;13.30;3.70;;;;;;;16.55;45.75;103066.72;6176481;23;20006;-86
2023/02/09 06:48:37;;;;;;;10.07;3.95;;;;;;;16.66;45.82;103078.34;6171926;23;20009;-86
2023/02/09 06:53:44;;;;;;;8.15;3.78;;;;;;;16.69;45.89;103069.75;6194630;23;20032;-88
2023/02/09 06:56:42;;;;;;;12.15;3.60;;;;;;;16.71;45.75;103070.69;6209236;23;20020;-85
2023/02/09 06:59:14;;;;;;;8.75;3.80;;;;;;;16.71;45.67;103078.50;6051194;23;20011;-85
2023/02/09 07:01:43;;;;;;;7.28;3.30;;;;;;;16.71;45.87;103087.16;6177858;23;20004;-85
2023/02/09 07:10:53;;;;;;;7.03;3.38;;;;;;;16.75;45.85;103103.75;6211748;23;20047;-86
2023/02/09 07:13:37;;;;;;;7.55;3.25;;;;;;;16.74;45.82;103099.38;6210899;23;19997;-81
2023/02/09 07:16:05;;;;;;;5.05;3.25;;;;;;;16.74;45.73;103100.25;6187211;23;20334;-79
2023/02/09 07:18:30;;;;;;;8.40;3.28;;;;;;;16.75;45.68;103096.81;6187625;23;20472;-80
2023/02/09 07:21:01;;;;;;;5.93;3.38;;;;;;;16.75;45.76;103102.03;6161545;23;20012;-80
2023/02/09 07:23:27;;;;;;;5.10;3.05;;;;;;;16.76;45.69;103100.28;6186798;23;19997;-80
2023/02/09 07:25:53;;;;;;;6.55;3.20;;;;;;;16.77;45.66;103102.09;6188187;23;20334;-80
2023/02/09 07:28:19;;;;;;;6.68;3.15;;;;;;;16.77;45.56;103100.34;6161253;23;20143;-80
2023/02/09 07:30:50;;;;;;;3.97;2.70;;;;;;;16.78;45.75;103103.81;6187639;23;20005;-80
2023/02/09 07:33:17;;;;;;;4.32;2.80;;;;;;;16.78;45.56;103107.31;6186579;23;20333;-80
2023/02/09 07:35:42;;;;;;;5.30;3.42;;;;;;;16.79;45.41;103101.28;6202281;23;20011;-85
2023/02/09 07:38:08;;;;;;;5.53;2.75;;;;;;;16.85;45.43;103093.69;6182619;23;20021;-85
2023/02/09 07:40:36;;;;;;;6.95;2.67;;;;;;;16.87;45.28;103106.72;6209564;23;20063;-86
2023/02/09 07:43:02;;;;;;;4.07;2.90;;;;;;;16.89;45.05;103102.47;6207140;23;20019;-85
2023/02/09 07:45:27;;;;;;;5.63;2.65;;;;;;;16.92;45.07;103099.06;6178382;23;20009;-84
2023/02/09 07:47:53;;;;;;;6.18;3.08;;;;;;;16.93;45.07;103095.63;6152623;23;20360;-80
2023/02/09 07:50:18;;;;;;;5.13;3.00;;;;;;;16.95;44.97;103109.56;6135995;23;20027;-79
2023/02/09 07:52:44;;;;;;;5.43;3.25;;;;;;;16.97;44.83;103110.50;6155248;23;20100;-80
2023/02/09 07:55:09;;;;;;;4.35;2.67;;;;;;;16.97;44.95;103115.69;6107117;23;20048;-78
2023/02/09 07:57:34;;;;;;;5.38;2.80;;;;;;;17.00;44.80;103113.19;6131705;23;20029;-79
2023/02/09 08:00:00;;;;;;;3.80;2.45;;;;;;;17.01;44.72;103115.84;6132653;23;20013;-79
2023/02/09 08:02:34;;;;;;;4.70;2.65;;;;;;;17.02;44.40;103109.78;6132783;23;20482;-79
2023/02/09 08:05:00;;;;;;;6.35;2.53;;;;;;;17.05;44.88;103107.28;6158716;23;20009;-79
2023/02/09 08:07:30;;;;;;;3.88;2.65;;;;;;;17.05;44.61;103112.47;6160157;23;20002;-79
2023/02/09 08:09:58;;;;;;;3.88;2.70;;;;;;;17.08;44.52;103121.22;6134906;23;20017;-79
2023/02/09 08:12:58;;;;;;;4.90;2.67;;;;;;;17.10;44.40;103114.34;6110771;23;20411;-79
2023/02/09 08:15:16;;;;;;;5.05;2.80;;;;;;;17.10;44.43;103112.63;6159378;23;20085;-79
2023/02/09 08:17:42;;;;;;;3.72;2.45;;;;;;;17.10;44.31;103102.22;6158120;23;20449;-79
2023/02/09 08:20:10;;;;;;;4.13;2.90;;;;;;;17.11;44.21;103103.94;6157864;23;20075;-80
2023/02/09 08:22:40;;;;;;;7.05;2.45;;;;;;;17.12;44.21;103095.34;6155685;23;20013;-80
2023/02/09 08:25:07;;;;;;;4.10;2.60;;;;;;;17.14;44.04;103092.78;6154938;23;20084;-79
2023/02/09 08:27:38;;;;;;;3.25;2.60;;;;;;;17.16;43.94;103107.59;6130621;23;20036;-79
2023/02/09 08:30:04;;;;;;;3.70;2.38;;;;;;;17.18;44.04;103110.22;6131719;23;20056;-79
2023/02/09 08:32:29;;;;;;;4.20;2.60;;;;;;;17.20;43.95;103111.13;6130869;23;20013;-79
2023/02/09 08:34:54;;;;;;;5.30;2.60;;;;;;;17.22;44.00;103109.47;6155349;23;20009;-79
2023/02/09 08:37:20;;;;;;;3.30;2.65;;;;;;;17.24;43.92;103113.00;6130951;23;20034;-79
2023/02/09 08:39:45;;;;;;;3.67;2.58;;;;;;;17.25;43.68;103119.97;6130815;23;20020;-79
2023/02/09 08:42:10;;;;;;;3.30;2.25;;;;;;;17.25;43.61;103123.44;6105893;23;20088;-79
2023/02/09 08:44:36;;;;;;;3.25;2.28;;;;;;;17.27;43.90;103118.31;6155504;23;20009;-78
2023/02/09 08:47:01;;;;;;;3.42;2.58;;;;;;;17.28;43.56;103113.13;6155049;23;20009;-79
2023/02/09 08:49:27;;;;;;;2.97;2.33;;;;;;;17.29;43.53;103114.03;6155056;23;20016;-78
2023/02/09 08:51:53;;;;;;;3.33;2.22;;;;;;;17.30;43.63;103118.38;6130254;23;20076;-79
2023/02/09 08:54:18;;;;;;;3.13;2.40;;;;;;;17.33;43.55;103105.44;6130559;23;20480;-78
2023/02/09 08:56:44;;;;;;;5.38;2.30;;;;;;;17.33;43.39;103104.56;6154829;23;20016;-79
2023/02/09 08:59:10;;;;;;;2.85;2.40;;;;;;;17.35;43.30;103119.38;6130643;23;20006;-79
2023/02/09 09:01:39;;;;;;;3.40;2.53;;;;;;;17.34;43.61;103124.56;6131114;23;20005;-81
2023/02/09 09:04:05;;;;;;;3.10;2.42;;;;;;;17.35;42.88;103121.97;6131285;23;20430;-79
2023/02/09 09:06:31;;;;;;;3.97;2.53;;;;;;;17.35;43.28;103123.69;6156171;23;20066;-79
2023/02/09 09:08:56;;;;;;;3.55;2.50;;;;;;;17.36;43.30;103126.34;6182550;23;20029;-81
2023/02/09 09:11:22;;;;;;;3.70;2.50;;;;;;;17.36;43.22;103139.38;6134809;23;20096;-79
2023/02/09 09:13:47;;;;;;;3.33;2.50;;;;;;;17.38;43.31;103129.88;6133191;23;20013;-79
2023/02/09 09:16:19;;;;;;;3.28;2.45;;;;;;;17.38;43.30;103122.09;6157603;23;20009;-80
2023/02/09 09:18:45;;;;;;;2.88;2.15;;;;;;;17.38;43.19;103123.81;6157928;23;20005;-79
2023/02/09 09:21:12;;;;;;;4.03;2.53;;;;;;;17.38;43.03;103129.88;6180407;23;20449;-79
2023/02/09 09:23:38;;;;;;;3.20;2.35;;;;;;;17.39;43.22;103141.16;6130631;23;20010;-79
2023/02/09 09:26:03;;;;;;;3.08;2.08;;;;;;;17.38;43.30;103142.03;6132205;23;20055;-80
2023/02/09 09:28:30;;;;;;;4.47;2.20;;;;;;;17.41;43.42;103134.28;6159060;23;20005;-80
2023/02/09 09:30:57;;;;;;;3.75;2.50;;;;;;;17.41;43.20;103134.28;6132073;23;20017;-79
2023/02/09 09:33:23;;;;;;;4.32;2.50;;;;;;;17.40;43.07;103130.81;6155305;23;20017;-79
2023/02/09 09:35:48;;;;;;;2.72;2.22;;;;;;;17.41;42.96;103129.97;6131249;23;20496;-79
2023/02/09 09:38:13;;;;;;;3.30;2.28;;;;;;;17.40;43.24;103122.13;6132276;23;20456;-79
2023/02/09 09:40:40;;;;;;;3.13;2.28;;;;;;;17.43;43.17;103130.88;6131903;23;20028;-80
2023/02/09 09:43:23;;;;;;;2.75;2.05;;;;;;;17.43;43.04;103136.09;6156462;23;20087;-80
2023/02/09 09:45:49;;;;;;;3.63;2.40;;;;;;;17.43;43.15;103141.28;6156875;23;20001;-80
2023/02/09 09:48:23;;;;;;;2.80;2.20;;;;;;;17.43;43.11;103138.69;6132123;23;20005;-80
2023/02/09 09:50:51;;;;;;;2.95;2.13;;;;;;;17.46;42.83;103130.09;6181643;23;20032;-80
2023/02/09 09:53:27;;;;;;;3.22;2.30;;;;;;;17.44;43.02;103139.56;6155977;23;20090;-79
2023/02/09 09:55:58;;;;;;;2.83;2.22;;;;;;;17.44;43.15;103135.28;6156957;23;20010;-79
2023/02/09 09:58:25;;;;;;;3.42;2.35;;;;;;;17.43;42.99;103137.81;6158303;23;20001;-80
2023/02/09 10:00:50;;;;;;;3.00;2.20;;;;;;;17.43;43.29;103140.41;6156817;23;20453;-79
2023/02/09 10:03:19;;;;;;;2.88;2.13;;;;;;;17.43;43.07;103137.81;6156395;23;20013;-80
2023/02/09 10:05:49;;;;;;;2.72;2.10;;;;;;;17.43;43.12;103137.81;6181452;23;20009;-80
2023/02/09 10:08:20;;;;;;;2.72;2.10;;;;;;;17.43;43.05;103140.41;6158321;23;20004;-79
2023/02/09 10:11:07;;;;;;;3.20;2.22;;;;;;;17.45;43.10;103143.94;6156595;23;20010;-80
2023/02/09 10:13:37;;;;;;;2.83;2.17;;;;;;;17.47;43.06;103147.47;6156328;23;20012;-79
2023/02/09 10:16:12;;;;;;;3.13;2.30;;;;;;;17.48;42.97;103149.22;6181245;23;20044;-80
2023/02/09 10:18:39;;;;;;;2.88;2.10;;;;;;;17.51;43.08;103158.84;6181343;23;20448;-80
2023/02/09 10:21:14;;;;;;;2.28;1.95;;;;;;;17.54;42.85;103158.94;6131960;23;20080;-80
2023/02/09 10:24:10;;;;;;;2.88;2.20;;;;;;;17.54;42.85;103157.22;6180980;23;20093;-79
2023/02/09 10:26:36;;;;;;;3.30;2.10;;;;;;;17.57;42.68;103170.34;6174200;23;20006;-80
2023/02/09 10:29:14;;;;;;;2.72;2.22;;;;;;;17.58;42.92;103174.69;6131516;23;20096;-79
2023/02/09 10:31:42;;;;;;;2.60;2.03;;;;;;;17.61;42.86;103171.28;6159660;23;20016;-84
2023/02/09 10:34:07;;;;;;;2.65;2.03;;;;;;;17.62;42.76;103168.72;6160024;23;20326;-85
2023/02/09 10:36:36;;;;;;;2.63;2.05;;;;;;;17.62;42.56;103173.06;6158316;23;20009;-85
2023/02/09 10:39:03;;;;;;;3.13;1.75;;;;;;;17.63;43.00;103175.69;6159725;23;20001;-86
2023/02/09 10:41:32;;;;;;;2.83;2.05;;;;;;;17.64;42.68;103179.19;6158055;23;20005;-79
2023/02/09 10:43:58;;;;;;;3.35;2.30;;;;;;;17.65;42.75;103180.94;6156385;23;20080;-80
2023/02/09 10:46:24;;;;;;;2.38;2.00;;;;;;;17.64;42.82;103174.00;6131854;23;20040;-80
2023/02/09 10:48:49;;;;;;;3.55;2.17;;;;;;;17.61;42.76;103172.16;6132799;23;20531;-80
2023/02/09 10:51:27;;;;;;;2.75;1.92;;;;;;;17.59;42.89;103170.34;6136312;23;20010;-80
2023/02/09 10:54:06;;;;;;;2.75;2.13;;;;;;;17.59;42.83;103176.44;6182496;23;20022;-80
2023/02/09 10:56:40;;;;;;;2.70;2.17;;;;;;;17.57;43.08;103172.94;6157280;23;20434;-80
2023/02/09 10:59:20;;;;;;;2.67;2.22;;;;;;;17.57;43.06;103172.03;6159104;23;20001;-80
2023/02/09 11:02:00;;;;;;;2.80;1.98;;;;;;;17.58;43.24;103185.09;6156636;23;20431;-80
2023/02/09 11:04:36;;;;;;;3.58;2.03;;;;;;;17.60;42.86;103182.56;6181618;23;20010;-79
2023/02/09 11:07:09;;;;;;;3.65;2.15;;;;;;;17.59;43.05;103176.44;6157607;23;20029;-80
2023/02/09 11:09:40;;;;;;;2.95;2.10;;;;;;;17.59;43.04;103183.38;6160478;23;20012;-80
2023/02/09 11:12:09;;;;;;;2.75;2.05;;;;;;;17.60;43.15;103172.13;6161689;23;20414;-80
2023/02/09 11:14:41;;;;;;;2.80;2.30;;;;;;;17.64;43.01;103174.88;6158599;23;20013;-80
2023/02/09 11:17:14;;;;;;;3.15;2.22;;;;;;;17.68;43.04;103168.91;6134436;23;20141;-80
2023/02/09 11:19:47;;;;;;;;;;;;;;;17.70;42.89;103174.13;6158215;23;20430;-80
2023/02/09 11:22:18;;;;;;;2.83;2.00;;;;;;;17.66;42.93;103177.50;6157403;23;19916;-80
2023/02/09 11:24:58;;;;;;;2.33;1.77;;;;;;;17.60;43.11;103180.81;6157313;23;20431;-79
2023/02/09 11:27:59;;;;;;;3.08;2.28;;;;;;;17.57;43.34;103177.25;6160539;23;20006;-86
2023/02/09 11:30:43;;;;;;;2.60;2.20;;;;;;;17.57;43.19;103166.81;6160263;23;20001;-86
2023/02/09 11:33:24;;;;;;;2.67;2.33;;;;;;;17.59;43.31;103162.53;6161034;23;20016;-86
2023/02/09 11:36:20;;;;;;;2.80;2.13;;;;;;;17.60;43.16;103165.19;6160591;23;20001;-85
2023/02/09 11:38:57;;;;;;;2.72;2.08;;;;;;;17.61;43.21;103163.47;6162207;23;20426;-80
2023/02/09 11:44:38;;;;;;;2.67;2.00;;;;;;;17.57;43.39;103161.63;6157062;23;20064;-80
2023/02/09 11:47:13;;;;;;;2.50;2.10;;;;;;;17.54;43.43;103159.81;6157195;23;20373;-79
2023/02/09 11:49:46;;;;;;;3.30;2.40;;;;;;;17.57;43.40;103161.63;6180277;23;20009;-79
2023/02/09 11:52:26;;;;;;;3.40;2.30;;;;;;;17.57;43.38;103161.63;6180100;23;20012;-80
2023/02/09 11:54:58;;;;;;;3.47;2.30;;;;;;;17.58;43.42;103161.66;6181737;23;20044;-86
2023/02/09 11:57:46;;;;;;;2.35;2.00;;;;;;;17.58;43.65;103163.41;6161186;23;20529;-80
2023/02/09 12:00:20;;;;;;;2.22;1.70;;;;;;;17.53;43.77;103160.66;6180298;23;20092;-79
2023/02/09 12:03:07;;;;;;;2.65;2.15;;;;;;;17.52;43.62;103156.28;6155733;23;20460;-80
2023/02/09 12:05:33;;;;;;;3.55;2.20;;;;;;;17.50;43.87;103157.97;6157539;23;20001;-80
2023/02/09 12:08:14;;;;;;;2.42;1.90;;;;;;;17.50;43.68;103151.88;6159912;23;20013;-80
2023/02/09 12:10:58;;;;;;;2.70;2.08;;;;;;;17.50;43.73;103157.97;6160803;23;20008;-81
2023/02/09 12:13:52;;;;;;;3.25;2.00;;;;;;;17.48;43.81;103160.56;6165008;23;20013;-80
2023/02/09 12:16:26;;;;;;;3.05;2.35;;;;;;;17.49;43.86;103158.81;6156477;23;20037;-80
2023/02/09 12:18:54;;;;;;;3.05;2.20;;;;;;;17.47;43.94;103153.56;6158254;23;20001;-79
2023/02/09 12:21:31;;;;;;;2.70;2.10;;;;;;;17.46;44.07;103148.31;6131231;23;20010;-80
2023/02/09 12:23:58;;;;;;;2.42;1.90;;;;;;;17.46;43.83;103148.31;6180517;23;20010;-80
2023/02/09 12:26:56;;;;;;;2.35;2.00;;;;;;;17.46;43.83;103151.81;6155852;23;20088;-80
2023/02/09 12:29:38;;;;;;;2.30;1.98;;;;;;;17.46;43.85;103150.91;6107710;23;20033;-78
2023/02/09 12:32:04;;;;;;;3.10;2.03;;;;;;;17.46;44.01;103151.81;6155361;23;20010;-80
2023/02/09 12:34:48;;;;;;;3.10;1.92;;;;;;;17.46;43.95;103154.41;6157641;23;20028;-85
2023/02/09 12:37:14;;;;;;;2.55;2.05;;;;;;;17.46;44.07;103154.41;6168258;23;20016;-86
2023/02/09 12:40:02;;;;;;;2.45;1.90;;;;;;;17.45;44.09;103152.63;6167087;23;20002;-86
2023/02/09 12:42:39;;;;;;;2.58;2.00;;;;;;;17.45;44.07;103155.25;6168351;23;20017;-85
2023/02/09 12:45:36;;;;;;;2.85;2.00;;;;;;;17.44;44.31;103163.00;6191195;23;20054;-85
2023/02/09 12:48:07;;;;;;;2.53;1.83;;;;;;;17.46;44.23;103156.13;6181256;23;20092;-85
2023/02/09 12:50:42;;;;;;;4.00;2.22;;;;;;;17.47;44.20;103165.69;6165081;23;20006;-85
2023/02/09 12:53:23;;;;;;;2.80;1.92;;;;;;;17.48;44.28;103154.44;6164560;23;20120;-84
2023/02/09 12:56:08;;;;;;;3.10;1.90;;;;;;;17.48;44.27;103157.94;6163439;23;20017;-85
2023/02/09 12:58:42;;;;;;;3.05;2.20;;;;;;;17.50;44.27;103164.91;6165984;23;20005;-85
2023/02/09 13:01:08;;;;;;;2.50;1.90;;;;;;;17.49;44.37;103166.63;6165554;23;20035;-86
2023/02/09 13:03:59;;;;;;;2.30;1.83;;;;;;;17.48;44.45;103164.84;6168599;23;20016;-86